Time;durP1;ratioP1;P1;durP2;ratioP2;P2;SDS_P1;SDS_P2;PMS_P1;PMS_P2;Temp;Humidity;BMP_temperature;BMP_pressure;BME280_temperature;BME280_humidity;BME280_pressure;Samples;Min_cycle;Max_cycle;Signal;HPM_P1;HPM_P2
2021/08/29 00:00:08;;;;;;;15.70;4.60;;;;;;;26.11;29.63;99486.72;5055896;28;20492;-70
2021/08/29 00:02:34;;;;;;;12.02;4.53;;;;;;;25.92;29.80;99463.72;5039290;28;20081;-70
2021/08/29 00:05:00;;;;;;;15.35;5.05;;;;;;;26.17;29.60;99485.66;5072487;28;20040;-69
2021/08/29 00:07:26;;;;;;;8.13;4.28;;;;;;;26.06;29.59;99483.94;5039197;28;20039;-70
2021/08/29 00:09:51;;;;;;;13.23;4.63;;;;;;;26.12;29.32;99485.63;5039194;28;20044;-70
2021/08/29 00:12:17;;;;;;;8.93;4.55;;;;;;;26.10;29.63;99476.09;5072454;28;20127;-70
2021/08/29 00:14:43;;;;;;;7.90;4.82;;;;;;;26.09;29.49;99477.97;5039276;28;20048;-69
2021/08/29 00:17:09;;;;;;;10.18;4.75;;;;;;;26.14;29.34;99485.38;5055583;28;20128;-69
2021/08/29 00:19:34;;;;;;;10.05;4.90;;;;;;;25.80;29.67;99470.41;5072186;28;20049;-69
2021/08/29 00:22:00;;;;;;;25.45;5.38;;;;;;;26.05;29.67;99460.53;5072258;28;20043;-69
2021/08/29 00:24:26;;;;;;;8.63;4.40;;;;;;;25.93;29.68;99462.63;5039080;28;20070;-70
2021/08/29 00:27:04;;;;;;;10.05;4.75;;;;;;;26.10;29.60;99457.88;5072229;28;20040;-69
2021/08/29 00:29:30;;;;;;;9.73;4.78;;;;;;;26.01;29.62;99458.63;5072254;28;20549;-69
2021/08/29 00:31:56;;;;;;;13.93;5.70;;;;;;;26.01;29.96;99459.44;5039489;28;20051;-68
2021/08/29 00:34:22;;;;;;;12.88;5.15;;;;;;;26.08;29.64;99457.31;5055277;28;20048;-69
2021/08/29 00:36:48;;;;;;;10.93;5.05;;;;;;;25.95;29.61;99448.75;5055031;28;20042;-69
2021/08/29 00:39:14;;;;;;;13.35;5.00;;;;;;;25.95;29.73;99443.31;5038798;28;20040;-69
2021/08/29 00:41:43;;;;;;;17.13;5.47;;;;;;;26.30;29.55;99451.72;5071741;28;20078;-69
2021/08/29 00:44:15;;;;;;;9.88;5.10;;;;;;;25.90;29.85;99446.81;5088700;28;20052;-69
2021/08/29 00:46:42;;;;;;;10.40;5.45;;;;;;;25.78;29.62;99438.03;5055029;28;20072;-69
2021/08/29 00:49:16;;;;;;;16.08;5.10;;;;;;;25.97;29.68;99450.13;5055224;28;20098;-69
2021/08/29 00:51:42;;;;;;;9.75;5.35;;;;;;;25.66;29.87;99445.53;5072844;28;20488;-69
2021/08/29 00:54:08;;;;;;;10.07;5.15;;;;;;;25.60;29.99;99452.00;5071614;28;20547;-68
2021/08/29 00:56:35;;;;;;;10.93;5.13;;;;;;;25.67;30.08;99455.34;5022005;28;20052;-69
2021/08/29 00:59:04;;;;;;;12.35;5.53;;;;;;;25.97;29.47;99449.31;5055302;28;20078;-69
2021/08/29 01:01:38;;;;;;;9.98;5.50;;;;;;;26.12;29.44;99435.81;5071701;28;20045;-69
2021/08/29 01:04:09;;;;;;;11.13;5.28;;;;;;;25.97;29.75;99439.22;5054423;28;20499;-69
2021/08/29 01:06:44;;;;;;;13.60;5.35;;;;;;;26.04;29.31;99444.47;5054586;28;20044;-69
2021/08/29 01:09:16;;;;;;;19.92;5.80;;;;;;;25.88;29.46;99427.19;5038785;28;20074;-69
2021/08/29 01:11:45;;;;;;;14.48;5.75;;;;;;;26.22;29.26;99425.81;5054553;28;20052;-69
2021/08/29 01:14:14;;;;;;;13.15;5.60;;;;;;;26.29;29.45;99433.75;5071291;28;20043;-69
2021/08/29 01:16:42;;;;;;;12.70;5.93;;;;;;;26.34;29.53;99431.03;5070940;28;20162;-69
2021/08/29 01:19:12;;;;;;;9.73;5.97;;;;;;;26.17;29.37;99433.94;5054438;28;20048;-69
2021/08/29 01:21:42;;;;;;;11.90;5.60;;;;;;;25.78;29.45;99413.53;5054432;28;20032;-69
2021/08/29 01:24:16;;;;;;;14.88;5.60;;;;;;;26.37;29.07;99431.31;5071009;28;20060;-69
2021/08/29 01:27:22;;;;;;;13.32;6.65;;;;;;;26.57;28.82;99436.03;5054730;28;20036;-68
2021/08/29 01:29:48;;;;;;;14.25;6.20;;;;;;;25.77;29.76;99425.47;5054267;28;20055;-69
2021/08/29 01:32:15;;;;;;;20.20;6.10;;;;;;;26.14;29.42;99426.31;5054261;28;20040;-69
2021/08/29 01:34:49;;;;;;;16.98;6.00;;;;;;;26.15;29.41;99419.78;5054154;28;20431;-69
2021/08/29 01:37:19;;;;;;;;;;;;;;;26.44;28.78;99434.66;5056003;28;20097;-69
2021/08/29 01:39:46;;;;;;;13.55;6.60;;;;;;;25.99;29.48;99433.56;5037736;28;19927;-69
2021/08/29 01:42:19;;;;;;;13.55;6.25;;;;;;;26.26;29.47;99423.38;5054034;28;20043;-69
2021/08/29 01:44:46;;;;;;;17.83;6.72;;;;;;;26.20;29.38;99436.13;5087305;28;20036;-69
2021/08/29 01:47:16;;;;;;;12.63;6.75;;;;;;;26.15;29.37;99435.28;5054085;28;20044;-69
2021/08/29 01:49:45;;;;;;;15.57;6.90;;;;;;;26.15;29.53;99429.84;5054020;28;20040;-68
2021/08/29 01:52:13;;;;;;;17.60;6.97;;;;;;;26.26;29.46;99418.75;5070422;28;20419;-69
2021/08/29 01:55:17;;;;;;;20.92;6.90;;;;;;;25.76;29.82;99429.28;5049448;28;20065;-69
2021/08/29 01:57:53;;;;;;;20.70;7.28;;;;;;;25.99;29.60;99433.56;5032863;28;20040;-69
2021/08/29 02:00:49;;;;;;;18.58;7.22;;;;;;;26.07;29.08;99441.22;5048962;28;20205;-69
2021/08/29 02:03:19;;;;;;;23.73;7.32;;;;;;;26.10;29.67;99436.09;5054567;28;20196;-69
2021/08/29 02:06:24;;;;;;;18.58;6.70;;;;;;;26.13;29.50;99429.28;5055081;28;20062;-69
2021/08/29 02:09:10;;;;;;;20.73;7.15;;;;;;;26.43;29.17;99430.25;5036686;28;20052;-69
2021/08/29 02:11:48;;;;;;;19.48;7.60;;;;;;;26.27;29.11;99436.72;5054501;28;20063;-69
2021/08/29 02:14:21;;;;;;;17.65;7.40;;;;;;;26.39;28.97;99428.34;5037476;28;20074;-69
2021/08/29 02:16:48;;;;;;;16.33;7.10;;;;;;;26.46;29.22;99434.38;5036226;28;20072;-69
2021/08/29 02:19:27;;;;;;;22.17;8.35;;;;;;;26.64;28.55;99430.38;5053501;28;20076;-69
2021/08/29 02:21:57;;;;;;;19.33;8.02;;;;;;;26.02;29.49;99409.34;5070703;28;20047;-69
2021/08/29 02:24:25;;;;;;;21.20;7.78;;;;;;;26.41;29.20;99432.44;5069979;28;20067;-69
2021/08/29 02:26:51;;;;;;;15.75;8.15;;;;;;;26.13;29.44;99418.41;5053356;28;20063;-69
2021/08/29 02:29:18;;;;;;;18.95;7.68;;;;;;;26.03;29.45;99407.47;5071120;28;20040;-69
2021/08/29 02:31:48;;;;;;;20.63;8.75;;;;;;;26.48;28.93;99427.56;5053521;28;20048;-69
2021/08/29 02:34:15;;;;;;;21.33;7.38;;;;;;;26.34;29.22;99426.41;5069961;28;20044;-69
2021/08/29 02:36:42;;;;;;;25.63;8.07;;;;;;;26.02;29.62;99430.31;5053303;28;20048;-69
2021/08/29 02:39:09;;;;;;;17.40;7.45;;;;;;;26.04;29.77;99431.69;5070000;28;20045;-69
2021/08/29 02:41:36;;;;;;;18.50;7.63;;;;;;;26.10;29.49;99427.91;5069968;28;20127;-69
2021/08/29 02:44:04;;;;;;;17.30;7.75;;;;;;;26.23;29.27;99427.44;5052956;28;20040;-69
2021/08/29 02:46:30;;;;;;;15.85;7.13;;;;;;;25.93;29.68;99431.84;5053029;28;20162;-69
2021/08/29 02:48:56;;;;;;;19.80;8.35;;;;;;;25.67;29.83;99430.84;5036588;28;20504;-70
2021/08/29 02:51:26;;;;;;;24.25;8.07;;;;;;;25.84;30.00;99417.94;5036295;28;20135;-69
2021/08/29 02:53:54;;;;;;;29.25;8.68;;;;;;;25.71;30.15;99433.88;5053817;28;20056;-69
2021/08/29 02:56:21;;;;;;;20.65;8.15;;;;;;;25.63;30.22;99437.09;5036567;28;20044;-69
2021/08/29 02:59:01;;;;;;;20.45;7.68;;;;;;;25.45;30.55;99429.31;5069825;28;20050;-69
2021/08/29 03:01:35;;;;;;;22.50;8.27;;;;;;;25.43;30.18;99436.91;5069712;28;20503;-69
2021/08/29 03:04:20;;;;;;;21.25;7.78;;;;;;;25.54;30.38;99439.44;5055511;28;20132;-69
2021/08/29 03:06:47;;;;;;;16.77;8.13;;;;;;;25.57;30.46;99441.66;5052967;28;20139;-69
2021/08/29 03:09:14;;;;;;;20.50;8.13;;;;;;;25.69;29.93;99433.31;5069731;28;20488;-70
2021/08/29 03:11:44;;;;;;;20.08;7.75;;;;;;;25.73;30.14;99437.16;5037406;28;20037;-69
2021/08/29 03:14:17;;;;;;;16.92;8.13;;;;;;;25.61;30.07;99442.78;5052988;28;20051;-69
2021/08/29 03:16:44;;;;;;;23.67;8.02;;;;;;;25.98;29.74;99446.31;5036061;28;20036;-69
2021/08/29 03:19:39;;;;;;;19.70;8.07;;;;;;;25.74;29.90;99442.31;5060346;28;20076;-70
2021/08/29 03:22:38;;;;;;;20.92;7.88;;;;;;;26.11;29.73;99434.16;5061173;28;20098;-70
2021/08/29 03:25:07;;;;;;;17.45;7.88;;;;;;;26.10;29.67;99446.97;5069375;28;20145;-69
2021/08/29 03:27:33;;;;;;;16.27;7.72;;;;;;;25.98;29.82;99453.66;5054153;28;20102;-69
2021/08/29 03:30:00;;;;;;;15.68;8.25;;;;;;;25.77;29.97;99457.34;5056897;28;20568;-70
2021/08/29 03:32:26;;;;;;;14.98;7.45;;;;;;;25.78;29.85;99459.78;5056539;28;20036;-70
2021/08/29 03:34:57;;;;;;;16.20;7.88;;;;;;;26.08;29.65;99448.31;5056447;28;20098;-69
2021/08/29 03:37:23;;;;;;;19.92;7.88;;;;;;;25.76;30.29;99450.22;5073109;28;20084;-69
2021/08/29 03:39:50;;;;;;;20.80;7.78;;;;;;;25.42;30.70;99443.41;5072822;28;20048;-69
2021/08/29 03:42:18;;;;;;;20.25;8.40;;;;;;;25.70;30.38;99437.66;5074190;28;20119;-69
2021/08/29 03:44:47;;;;;;;17.33;8.07;;;;;;;25.81;30.10;99451.09;5072734;28;20056;-69
2021/08/29 03:47:13;;;;;;;18.35;8.07;;;;;;;25.71;30.35;99459.16;5056226;28;20442;-69
2021/08/29 03:49:39;;;;;;;18.85;8.13;;;;;;;25.72;30.39;99457.28;5072958;28;20040;-69
2021/08/29 03:52:08;;;;;;;20.83;7.72;;;;;;;25.38;31.08;99436.84;5057203;28;20044;-70
2021/08/29 03:54:57;;;;;;;18.90;8.10;;;;;;;25.51;30.81;99441.88;5072103;28;20072;-70
2021/08/29 03:57:23;;;;;;;18.75;7.97;;;;;;;25.71;30.58;99445.56;5056164;28;20076;-70
2021/08/29 03:59:50;;;;;;;24.05;8.02;;;;;;;25.69;30.27;99428.72;5056130;28;20036;-70
2021/08/29 04:02:16;;;;;;;15.02;7.55;;;;;;;25.70;30.24;99452.09;5039625;28;20519;-70
2021/08/29 04:04:43;;;;;;;29.80;8.38;;;;;;;25.91;30.17;99448.44;5039340;28;20076;-70
2021/08/29 04:07:10;;;;;;;21.83;7.78;;;;;;;25.77;30.68;99443.72;5072750;28;20080;-70
2021/08/29 04:09:59;;;;;;;16.58;8.13;;;;;;;25.87;30.40;99447.34;5058827;28;20044;-70
2021/08/29 04:12:27;;;;;;;17.60;8.00;;;;;;;26.01;30.23;99450.44;5089087;28;20415;-70
2021/08/29 04:15:22;;;;;;;18.38;8.25;;;;;;;25.14;31.38;99449.09;5038309;28;20045;-70
2021/08/29 04:17:48;;;;;;;19.40;8.13;;;;;;;25.69;30.90;99442.31;5022483;28;20040;-70
2021/08/29 04:20:18;;;;;;;15.13;7.53;;;;;;;25.83;30.74;99450.84;5055926;28;20048;-70
2021/08/29 04:22:44;;;;;;;14.68;7.75;;;;;;;25.69;30.96;99445.03;5055466;28;20072;-70
2021/08/29 04:25:11;;;;;;;17.08;7.78;;;;;;;25.64;31.17;99442.25;5055504;28;20163;-70
2021/08/29 04:27:38;;;;;;;15.63;7.90;;;;;;;25.47;31.04;99433.41;5055178;28;20135;-71
2021/08/29 04:30:07;;;;;;;11.40;7.72;;;;;;;25.69;31.02;99444.19;5055645;28;20036;-71
2021/08/29 04:32:32;;;;;;;16.98;8.90;;;;;;;25.69;30.67;99438.75;5055326;28;20098;-70
2021/08/29 04:35:00;;;;;;;18.15;9.13;;;;;;;25.74;30.65;99436.09;5055020;28;20079;-70
2021/08/29 04:37:39;;;;;;;16.27;8.43;;;;;;;25.63;31.02;99431.63;5040142;28;20045;-69
2021/08/29 04:40:12;;;;;;;15.18;8.10;;;;;;;25.79;31.23;99438.81;5039081;28;20041;-69
2021/08/29 04:42:47;;;;;;;22.17;8.10;;;;;;;25.79;30.78;99446.97;5056308;28;20052;-68
2021/08/29 04:45:12;;;;;;;13.95;7.65;;;;;;;25.80;30.81;99448.66;5038819;28;20451;-70
2021/08/29 04:47:39;;;;;;;14.82;7.20;;;;;;;25.82;30.51;99444.56;5054721;28;20036;-69
2021/08/29 04:50:05;;;;;;;16.38;8.98;;;;;;;26.12;30.34;99444.00;5038353;28;20465;-69
2021/08/29 04:52:31;;;;;;;10.73;7.05;;;;;;;26.63;29.41;99455.97;5071505;28;20073;-69
2021/08/29 04:54:59;;;;;;;17.05;8.10;;;;;;;26.15;30.16;99447.03;5038532;28;20041;-70
2021/08/29 04:57:28;;;;;;;14.90;7.50;;;;;;;26.00;30.34;99451.53;5071464;28;20075;-69
2021/08/29 04:59:53;;;;;;;11.30;7.30;;;;;;;26.12;30.55;99457.59;5055059;28;20041;-70
2021/08/29 05:02:20;;;;;;;11.82;7.57;;;;;;;26.10;30.42;99463.31;5038075;28;20032;-69
2021/08/29 05:04:47;;;;;;;15.65;7.75;;;;;;;26.24;30.14;99460.94;5038462;28;20051;-69
2021/08/29 05:07:14;;;;;;;17.67;8.10;;;;;;;26.63;29.76;99451.38;5054993;28;20037;-70
2021/08/29 05:09:41;;;;;;;16.85;7.60;;;;;;;26.85;29.45;99432.91;5038659;28;20040;-70
2021/08/29 05:12:09;;;;;;;16.38;7.82;;;;;;;27.04;29.05;99452.31;5071293;28;20052;-69
2021/08/29 05:14:39;;;;;;;14.02;7.63;;;;;;;27.37;28.65;99451.88;5038422;28;20381;-70
2021/08/29 05:17:06;;;;;;;11.88;7.78;;;;;;;27.07;29.04;99463.50;5037933;28;20041;-70
2021/08/29 05:19:40;;;;;;;18.05;7.03;;;;;;;27.13;28.96;99456.97;5038879;28;20037;-70
2021/08/29 05:22:26;;;;;;;16.80;8.05;;;;;;;27.25;28.94;99456.72;5057175;28;20063;-70
2021/08/29 05:25:11;;;;;;;13.07;7.68;;;;;;;27.43;28.91;99456.25;5085433;28;20056;-70
2021/08/29 05:27:38;;;;;;;12.30;7.13;;;;;;;27.53;28.49;99459.78;5070712;28;20126;-69
2021/08/29 05:30:05;;;;;;;13.20;7.72;;;;;;;27.69;28.31;99466.88;5054764;28;20389;-69
2021/08/29 05:32:31;;;;;;;19.00;8.20;;;;;;;27.30;28.76;99470.38;5054162;28;20416;-69
2021/08/29 05:34:57;;;;;;;16.25;7.82;;;;;;;27.17;28.96;99447.16;5054452;28;20059;-69
2021/08/29 05:37:23;;;;;;;15.35;7.25;;;;;;;27.52;28.66;99460.06;5021204;28;20076;-68
2021/08/29 05:40:07;;;;;;;16.08;7.53;;;;;;;27.69;28.36;99468.81;5042569;28;20578;-69
2021/08/29 05:42:50;;;;;;;16.55;7.63;;;;;;;27.99;28.20;99464.16;5053668;28;20378;-69
2021/08/29 05:45:16;;;;;;;14.25;8.07;;;;;;;28.11;27.94;99455.66;5037621;28;20135;-69
2021/08/29 05:47:42;;;;;;;13.98;7.20;;;;;;;27.89;27.91;99463.38;5053913;28;20052;-69
2021/08/29 05:50:08;;;;;;;19.40;8.02;;;;;;;27.98;28.21;99442.59;5036663;28;20140;-69
2021/08/29 05:52:39;;;;;;;11.30;7.90;;;;;;;27.89;28.00;99458.72;5054302;28;20040;-69
2021/08/29 05:55:05;;;;;;;13.73;7.63;;;;;;;28.17;27.91;99454.56;5037332;28;20102;-69
2021/08/29 05:57:33;;;;;;;18.02;7.78;;;;;;;28.38;27.84;99461.63;5054254;28;20048;-69
2021/08/29 05:59:59;;;;;;;23.55;7.90;;;;;;;28.39;27.76;99457.78;5037006;28;20450;-69
2021/08/29 06:02:25;;;;;;;23.27;8.38;;;;;;;28.46;27.51;99455.56;5037338;28;20488;-69
2021/08/29 06:04:51;;;;;;;16.20;7.40;;;;;;;28.63;27.34;99450.63;5071179;28;20167;-69
2021/08/29 06:07:25;;;;;;;17.88;7.85;;;;;;;28.56;27.21;99452.03;5039352;28;20048;-69
2021/08/29 06:10:00;;;;;;;15.85;7.72;;;;;;;28.60;27.15;99447.66;5053423;28;20139;-69
2021/08/29 06:12:26;;;;;;;13.60;7.80;;;;;;;28.85;27.11;99453.81;5037038;28;20132;-69
2021/08/29 06:14:52;;;;;;;19.30;7.65;;;;;;;28.97;26.55;99437.88;5053396;28;20040;-69
2021/08/29 06:17:18;;;;;;;14.88;7.65;;;;;;;29.21;26.53;99449.81;5070548;28;20049;-69
2021/08/29 06:19:44;;;;;;;20.23;7.78;;;;;;;29.79;25.71;99463.63;5053117;28;20063;-69
2021/08/29 06:22:10;;;;;;;16.88;7.68;;;;;;;30.03;25.45;99457.09;5053486;28;20411;-69
2021/08/29 06:24:50;;;;;;;;;;;;;;;30.79;24.42;99463.44;5055746;28;20492;-69
2021/08/29 06:27:35;;;;;;;19.45;7.63;;;;;;;30.62;24.60;99463.06;5041566;28;19927;-69
2021/08/29 06:30:07;;;;;;;16.75;7.40;;;;;;;31.02;24.20;99467.22;5070001;28;20514;-69
2021/08/29 06:32:51;;;;;;;14.85;7.80;;;;;;;31.27;23.64;99464.13;5070241;28;20052;-69
2021/08/29 06:35:23;;;;;;;15.82;7.40;;;;;;;30.95;23.87;99462.09;5037476;28;20039;-69
2021/08/29 06:37:57;;;;;;;17.30;7.85;;;;;;;30.99;23.81;99452.19;5038891;28;20046;-69
2021/08/29 06:40:25;;;;;;;14.93;7.10;;;;;;;31.22;23.72;99466.13;5020974;28;20049;-69
2021/08/29 06:42:51;;;;;;;17.50;7.35;;;;;;;31.67;23.11;99468.22;5053295;28;20045;-69
2021/08/29 06:45:52;;;;;;;15.10;6.72;;;;;;;32.31;22.34;99460.75;5017061;28;20041;-69
2021/08/29 06:48:36;;;;;;;15.13;7.28;;;;;;;32.80;21.87;99456.53;5051881;28;20147;-69
2021/08/29 06:51:37;;;;;;;;;;;;;;;32.82;21.56;99452.34;5017432;28;20141;-69
2021/08/29 06:54:05;;;;;;;13.73;8.13;;;;;;;32.54;21.71;99442.47;5061800;28;19973;-70
2021/08/29 06:56:50;;;;;;;22.20;7.03;;;;;;;33.12;21.13;99437.91;5083730;28;20114;-69
2021/08/29 06:59:27;;;;;;;17.65;7.40;;;;;;;33.57;20.96;99438.81;5039486;28;20503;-69
2021/08/29 07:01:55;;;;;;;20.55;7.40;;;;;;;33.81;20.61;99447.59;5054172;28;20048;-69
2021/08/29 07:04:21;;;;;;;15.73;7.05;;;;;;;33.92;20.50;99451.75;5040562;28;20055;-70
2021/08/29 07:06:47;;;;;;;19.88;7.63;;;;;;;34.22;20.17;99442.66;5073483;28;20094;-70
2021/08/29 07:09:32;;;;;;;15.55;6.72;;;;;;;34.66;19.51;99453.53;5059434;28;20448;-69
2021/08/29 07:11:58;;;;;;;16.50;7.05;;;;;;;35.20;19.01;99446.69;5040248;28;20045;-69
2021/08/29 07:14:42;;;;;;;18.17;6.70;;;;;;;35.65;18.44;99436.97;5090149;28;20059;-70
2021/08/29 07:17:09;;;;;;;15.07;7.55;;;;;;;35.91;18.11;99448.00;5073327;28;20495;-70
2021/08/29 07:19:35;;;;;;;16.05;7.28;;;;;;;36.07;17.97;99449.94;5040254;28;20041;-69
2021/08/29 07:22:20;;;;;;;13.57;5.97;;;;;;;36.12;17.97;99451.72;5058427;28;20051;-70
2021/08/29 07:25:05;;;;;;;14.07;6.72;;;;;;;36.21;17.42;99447.78;5058912;28;20056;-69
2021/08/29 07:27:50;;;;;;;12.15;6.35;;;;;;;35.80;17.69;99435.66;5089977;28;20500;-69
2021/08/29 07:30:34;;;;;;;14.07;6.43;;;;;;;35.86;18.07;99442.66;5044934;28;20068;-69
2021/08/29 07:33:13;;;;;;;20.60;6.85;;;;;;;36.16;17.31;99450.72;5026876;28;20044;-70
2021/08/29 07:35:47;;;;;;;12.13;6.45;;;;;;;36.42;17.40;99456.16;5072942;28;20049;-69
2021/08/29 07:38:32;;;;;;;16.10;6.60;;;;;;;37.62;16.60;99453.47;5059116;28;20508;-70
2021/08/29 07:40:57;;;;;;;13.57;6.10;;;;;;;39.92;14.35;99445.59;5072771;28;20056;-70
2021/08/29 07:43:23;;;;;;;16.98;6.47;;;;;;;42.38;12.54;99445.69;5056683;28;20044;-70
2021/08/29 07:45:50;;;;;;;14.45;7.22;;;;;;;44.73;10.71;99445.94;5056391;28;20054;-70
2021/08/29 07:48:16;;;;;;;14.25;6.30;;;;;;;46.56;9.24;99448.69;5055996;28;20045;-70
2021/08/29 07:50:42;;;;;;;9.95;6.00;;;;;;;48.28;7.85;99436.84;5072662;28;20045;-70
2021/08/29 07:53:08;;;;;;;10.18;6.10;;;;;;;49.53;6.90;99428.34;5039530;28;20071;-70
2021/08/29 07:55:52;;;;;;;15.98;5.53;;;;;;;51.04;6.21;99425.16;5072980;28;20059;-71
2021/08/29 07:58:23;;;;;;;11.52;5.10;;;;;;;51.44;5.83;99421.13;5073043;28;20044;-70
2021/08/29 08:00:58;;;;;;;10.93;5.53;;;;;;;49.39;6.79;99417.25;5072431;28;20496;-70
2021/08/29 08:03:36;;;;;;;13.07;5.50;;;;;;;48.87;7.12;99416.59;5042441;28;20190;-70
2021/08/29 08:06:20;;;;;;;12.70;6.45;;;;;;;48.12;7.83;99402.75;5072736;28;20155;-70
2021/08/29 08:08:54;;;;;;;11.73;5.38;;;;;;;49.70;6.81;99401.91;5072486;28;20507;-71
2021/08/29 08:11:38;;;;;;;12.20;5.60;;;;;;;50.49;6.10;99411.59;5072534;28;20053;-70
2021/08/29 08:14:05;;;;;;;12.85;5.53;;;;;;;50.03;6.44;99392.56;5054523;28;20051;-70
2021/08/29 08:16:32;;;;;;;18.85;5.22;;;;;;;50.21;6.23;99395.09;5072416;28;20084;-70
2021/08/29 08:18:59;;;;;;;12.75;5.10;;;;;;;50.67;6.20;99392.31;5055677;28;20059;-70
2021/08/29 08:21:25;;;;;;;13.82;5.80;;;;;;;51.99;5.38;99390.72;5039362;28;20431;-70
2021/08/29 08:24:09;;;;;;;13.90;5.47;;;;;;;53.51;4.82;99386.63;5073284;28;20052;-70
2021/08/29 08:26:38;;;;;;;15.85;5.65;;;;;;;53.40;4.60;99386.94;5072224;28;20052;-71
2021/08/29 08:29:28;;;;;;;12.68;5.15;;;;;;;52.61;4.86;99375.38;5035472;28;20160;-71
2021/08/29 08:31:53;;;;;;;9.02;5.32;;;;;;;53.15;5.08;99381.19;5055533;28;20135;-71
2021/08/29 08:34:52;;;;;;;15.13;5.38;;;;;;;54.57;4.05;99368.53;5014905;28;20048;-71
2021/08/29 08:37:40;;;;;;;17.90;5.28;;;;;;;55.68;3.53;99361.06;5063825;28;20048;-71
2021/08/29 08:40:21;;;;;;;11.63;5.60;;;;;;;56.88;3.22;99371.03;5071986;28;20150;-72
2021/08/29 08:42:49;;;;;;;10.95;5.35;;;;;;;57.83;2.65;99370.22;5072988;28;20492;-71
2021/08/29 08:45:35;;;;;;;13.02;5.72;;;;;;;57.98;2.44;99376.78;5057686;28;20040;-71
2021/08/29 08:48:21;;;;;;;9.75;5.00;;;;;;;57.85;2.42;99379.09;5057626;28;20089;-72
2021/08/29 08:51:10;;;;;;;12.18;4.75;;;;;;;58.44;2.36;99392.44;5057632;28;20040;-71
2021/08/29 08:53:55;;;;;;;13.80;4.78;;;;;;;59.15;2.13;99371.50;5085980;28;20045;-71
2021/08/29 08:56:22;;;;;;;8.75;4.72;;;;;;;59.89;1.63;99362.34;5054823;28;20052;-71
2021/08/29 08:59:20;;;;;;;11.40;4.05;;;;;;;60.16;1.39;99370.59;5053411;28;20424;-72
2021/08/29 09:01:52;;;;;;;9.70;4.20;;;;;;;60.58;1.25;99370.88;5055417;28;20503;-72
2021/08/29 09:04:51;;;;;;;10.23;4.15;;;;;;;61.12;1.17;99366.28;5031037;28;20049;-72
2021/08/29 09:07:18;;;;;;;8.80;4.53;;;;;;;60.94;1.57;99360.88;5054790;28;20043;-71
2021/08/29 09:09:44;;;;;;;14.23;4.60;;;;;;;60.57;1.48;99354.97;5037843;28;20046;-71
2021/08/29 09:12:10;;;;;;;14.35;4.72;;;;;;;60.52;1.26;99349.94;5038226;28;20448;-71
2021/08/29 09:14:45;;;;;;;13.50;4.50;;;;;;;59.72;1.17;99350.59;5037737;28;20044;-71
2021/08/29 09:17:31;;;;;;;7.78;4.50;;;;;;;55.92;3.33;99336.47;5054657;28;20097;-71
2021/08/29 09:20:18;;;;;;;13.77;5.25;;;;;;;52.94;4.90;99330.69;5038788;28;20499;-71
2021/08/29 09:22:48;;;;;;;13.98;4.93;;;;;;;53.01;4.69;99336.22;5038131;28;20044;-71
2021/08/29 09:25:40;;;;;;;11.18;5.25;;;;;;;52.80;4.72;99331.91;5070647;28;20052;-71
2021/08/29 09:28:16;;;;;;;15.30;4.90;;;;;;;53.10;4.68;99339.94;5053944;28;20040;-71
2021/08/29 09:30:50;;;;;;;9.57;5.32;;;;;;;51.08;5.72;99340.97;5055046;28;20142;-71
2021/08/29 09:33:17;;;;;;;9.20;4.72;;;;;;;50.08;6.55;99335.56;5037817;28;20172;-71
2021/08/29 09:35:43;;;;;;;11.80;5.35;;;;;;;50.45;6.23;99343.81;5071918;28;20046;-71
2021/08/29 09:38:39;;;;;;;12.18;5.20;;;;;;;49.56;6.76;99331.50;5085597;28;20126;-71
2021/08/29 09:41:25;;;;;;;13.35;5.25;;;;;;;48.99;7.57;99336.28;5055382;28;20040;-71
2021/08/29 09:44:10;;;;;;;11.40;5.82;;;;;;;50.82;6.18;99354.03;5054105;28;20051;-70
2021/08/29 09:47:14;;;;;;;12.30;5.50;;;;;;;49.87;6.93;99352.81;5070524;28;20055;-71
2021/08/29 09:50:04;;;;;;;12.18;5.15;;;;;;;50.22;6.96;99355.09;5040467;28;20155;-70
2021/08/29 09:52:45;;;;;;;11.02;5.07;;;;;;;48.52;7.87;99357.72;5055838;28;20095;-70
2021/08/29 09:55:30;;;;;;;15.05;5.25;;;;;;;47.84;8.39;99357.88;5054900;28;20071;-70
2021/08/29 09:58:24;;;;;;;16.58;5.22;;;;;;;46.83;9.17;99373.94;5072878;28;20040;-70
2021/08/29 10:01:13;;;;;;;19.30;6.30;;;;;;;45.35;10.11;99362.56;5070417;28;20055;-70
2021/08/29 10:03:51;;;;;;;20.00;5.70;;;;;;;44.21;11.19;99359.41;5070152;28;20046;-70
2021/08/29 10:06:20;;;;;;;19.23;6.05;;;;;;;43.33;11.78;99343.72;5053907;28;20048;-70
2021/08/29 10:08:51;;;;;;;17.42;6.43;;;;;;;41.72;13.25;99337.22;5053427;28;20080;-70
2021/08/29 10:11:37;;;;;;;18.15;7.10;;;;;;;39.68;14.96;99351.16;5056312;28;20047;-70
2021/08/29 10:14:03;;;;;;;15.70;6.55;;;;;;;38.48;16.20;99343.16;5036989;28;20037;-70
2021/08/29 10:16:29;;;;;;;11.60;6.13;;;;;;;38.40;16.40;99339.34;5037442;28;20050;-70
2021/08/29 10:19:24;;;;;;;14.80;7.43;;;;;;;38.80;16.43;99335.88;5016529;28;20576;-70
2021/08/29 10:22:08;;;;;;;12.10;6.38;;;;;;;39.08;16.23;99356.16;5055554;28;20045;-70
2021/08/29 10:24:35;;;;;;;21.92;7.35;;;;;;;39.00;15.87;99352.38;5036984;28;20060;-70
2021/08/29 10:27:07;;;;;;;14.88;6.25;;;;;;;38.40;16.80;99342.13;5037006;28;20040;-70
2021/08/29 10:29:55;;;;;;;12.00;6.40;;;;;;;38.03;17.09;99336.88;5055130;28;20047;-70
2021/08/29 10:32:44;;;;;;;18.88;7.18;;;;;;;37.92;17.34;99328.22;5055931;28;20044;-70
2021/08/29 10:35:29;;;;;;;11.90;5.93;;;;;;;36.59;18.82;99343.44;5073036;28;20067;-70
2021/08/29 10:38:05;;;;;;;12.63;6.22;;;;;;;35.66;20.00;99342.69;5069505;28;20548;-70
2021/08/29 10:41:03;;;;;;;13.68;6.60;;;;;;;35.74;20.03;99341.84;5052384;28;20052;-70
2021/08/29 10:43:35;;;;;;;13.32;5.78;;;;;;;35.22;20.57;99345.00;5054058;28;20048;-70
2021/08/29 10:46:36;;;;;;;18.92;6.30;;;;;;;35.16;21.03;99333.34;5023521;28;20037;-70
2021/08/29 10:49:22;;;;;;;14.65;6.60;;;;;;;35.86;20.33;99343.16;5066475;28;20527;-70
2021/08/29 10:51:50;;;;;;;21.77;5.90;;;;;;;36.32;19.80;99354.97;5053546;28;20048;-70
2021/08/29 10:54:16;;;;;;;16.13;7.00;;;;;;;36.41;19.74;99344.69;5053561;28;20567;-70
2021/08/29 10:56:46;;;;;;;11.43;6.00;;;;;;;36.34;19.53;99351.88;5037384;28;20037;-71
2021/08/29 10:59:18;;;;;;;25.38;7.10;;;;;;;36.59;19.36;99359.22;5069881;28;20082;-70
2021/08/29 11:01:48;;;;;;;9.75;6.07;;;;;;;38.24;18.16;99363.41;5036730;28;20045;-71
2021/08/29 11:04:46;;;;;;;14.27;6.25;;;;;;;38.54;17.46;99364.81;5033680;28;20048;-71
2021/08/29 11:07:52;;;;;;;18.48;5.47;;;;;;;38.29;17.81;99349.31;5052893;28;20045;-71
2021/08/29 11:10:53;;;;;;;14.95;6.20;;;;;;;38.39;17.21;99362.72;5069241;28;20040;-70
2021/08/29 11:13:31;;;;;;;12.93;5.63;;;;;;;37.75;17.90;99361.69;4992578;28;20501;-70
2021/08/29 11:16:09;;;;;;;16.40;5.97;;;;;;;37.08;19.15;99361.16;5042990;28;20047;-70
2021/08/29 11:19:00;;;;;;;16.23;5.88;;;;;;;37.01;18.85;99360.91;5055194;28;20089;-70
2021/08/29 11:21:35;;;;;;;14.32;5.70;;;;;;;36.64;19.32;99357.06;5053157;28;20511;-70
2021/08/29 11:24:55;;;;;;;13.02;6.03;;;;;;;36.00;20.18;99355.59;5070606;28;20615;-70
2021/08/29 11:27:34;;;;;;;11.82;5.65;;;;;;;35.65;20.87;99360.41;5052914;28;20041;-70
2021/08/29 11:30:21;;;;;;;15.95;6.20;;;;;;;35.68;20.72;99364.47;5055426;28;20132;-70
2021/08/29 11:32:56;;;;;;;16.23;5.72;;;;;;;36.04;20.53;99367.63;5052747;28;20126;-70
2021/08/29 11:35:22;;;;;;;18.00;5.93;;;;;;;35.97;20.39;99366.53;5052649;28;20040;-70
2021/08/29 11:38:19;;;;;;;15.52;6.00;;;;;;;36.47;20.10;99353.63;5052341;28;20135;-70
2021/08/29 11:41:06;;;;;;;13.63;5.50;;;;;;;36.44;20.28;99357.88;5052859;28;20055;-70
2021/08/29 11:43:54;;;;;;;18.27;5.78;;;;;;;36.45;20.32;99344.81;5035769;28;20067;-70
2021/08/29 11:46:37;;;;;;;14.30;6.38;;;;;;;36.89;19.98;99355.31;5069164;28;20629;-70
2021/08/29 11:49:12;;;;;;;11.80;5.80;;;;;;;37.13;19.77;99353.47;5071646;28;20045;-70
2021/08/29 11:51:49;;;;;;;14.27;5.72;;;;;;;37.37;19.65;99352.00;5040851;28;20052;-70
2021/08/29 11:54:20;;;;;;;10.70;4.97;;;;;;;37.78;18.92;99360.22;5023960;28;20047;-70
2021/08/29 11:56:51;;;;;;;14.20;5.65;;;;;;;38.08;18.62;99359.69;5072635;28;20455;-70
2021/08/29 11:59:40;;;;;;;16.83;6.88;;;;;;;38.17;18.50;99352.09;5040297;28;20396;-70
2021/08/29 12:02:35;;;;;;;21.05;6.22;;;;;;;38.39;18.30;99356.34;5041650;28;20408;-71